Air Quality Table

TIMESTAMP NO2 SO2 O3 PM10 PM2.5 CO TEMP HUM AIRPRES WS WD NO BENZENE
2023-06-09 21:00 22.67 µg/m3 -0.03 µg/m3 52.32 µg/m3 28.62 µg/m3 13.18 µg/m3 0.26 mg/m3 23.3 °C 65.17 % 1,013.66 mbar 1.19 m/s 147.1 Deg 6.24 µg/m3 1.47 µg/m3
2023-06-09 20:00 15.33 µg/m3 -0.2 µg/m3 60.42 µg/m3 27.81 µg/m3 11.64 µg/m3 0.23 mg/m3 23.61 °C 62.39 % 1,013.26 mbar 1.29 m/s 159.9 Deg 4.99 µg/m3 1.31 µg/m3
2023-06-09 19:00 15.55 µg/m3 -0.22 µg/m3 64.31 µg/m3 25.54 µg/m3 10.12 µg/m3 0.22 mg/m3 24.55 °C 56.54 % 1,013.38 mbar 1.52 m/s 193.63 Deg 2.86 µg/m3 1.73 µg/m3
2023-06-09 18:00 17.32 µg/m3 -0.15 µg/m3 65.57 µg/m3 27.49 µg/m3 10.7 µg/m3 0.23 mg/m3 24.92 °C 55.49 % 1,013.43 mbar 1.55 m/s 168.6 Deg 9.97 µg/m3 1.57 µg/m3
2023-06-09 17:00 20.32 µg/m3 -0.12 µg/m3 73.43 µg/m3 26.33 µg/m3 9.68 µg/m3 0.25 mg/m3 25.49 °C 50.92 % 1,013.39 mbar 2.41 m/s 169.37 Deg 9.9 µg/m3 1.78 µg/m3
2023-06-09 16:00 20.91 µg/m3 -0.09 µg/m3 71.84 µg/m3 30.17 µg/m3 10.19 µg/m3 0.24 mg/m3 26.01 °C 49.02 % 1,013.77 mbar 2.17 m/s 167.27 Deg 11.13 µg/m3 1.84 µg/m3
2023-06-09 15:00 20.7 µg/m3 -0.1 µg/m3 70.99 µg/m3 29.96 µg/m3 9.5 µg/m3 0.2 mg/m3 26.19 °C 47.74 % 1,013.91 mbar 2.37 m/s 170.92 Deg 9.94 µg/m3 1.36 µg/m3
2023-06-09 14:00 18.81 µg/m3 -0.02 µg/m3 68.78 µg/m3 27.34 µg/m3 9.33 µg/m3 0.22 mg/m3 26.34 °C 46.59 % 1,014.23 mbar 2.33 m/s 169.67 Deg 16.51 µg/m3 1.47 µg/m3
2023-06-09 13:00 18.26 µg/m3 -0.05 µg/m3 70.3 µg/m3 34.23 µg/m3 10.53 µg/m3 0.22 mg/m3 26.13 °C 46.75 % 1,014.35 mbar 2.43 m/s 185.92 Deg 13.2 µg/m3 1.42 µg/m3
2023-06-09 12:00 24.11 µg/m3 -0.02 µg/m3 68.4 µg/m3 34.28 µg/m3 10.9 µg/m3 0.3 mg/m3 26.11 °C 45.56 % 1,014.50 mbar 2.01 m/s 158.17 Deg 15.85 µg/m3 1.42 µg/m3
2023-06-09 11:00 23.05 µg/m3 0 µg/m3 69.25 µg/m3 µg/m3 µg/m3 0.25 mg/m3 25.52 °C 46.99 % 1,014.83 mbar 2.02 m/s 177.93 Deg 13.84 µg/m3 1.31 µg/m3
2023-06-09 10:00 18.34 µg/m3 -0.05 µg/m3 73.48 µg/m3 µg/m3 µg/m3 0.18 mg/m3 25.17 °C 46.66 % 1,014.66 mbar 2.12 m/s 211.38 Deg 7.6 µg/m3 1.73 µg/m3
2023-06-09 09:00 24.66 µg/m3 -0.06 µg/m3 69.48 µg/m3 µg/m3 µg/m3 0.25 mg/m3 24.44 °C 55.07 % 1,014.52 mbar 1.55 m/s 204.32 Deg 7.54 µg/m3 2.1 µg/m3
2023-06-09 08:00 39.13 µg/m3 0.15 µg/m3 58.14 µg/m3 µg/m3 µg/m3 0.31 mg/m3 23.47 °C 60.99 % 1,014.32 mbar 1.5 m/s 187.88 Deg 14.82 µg/m3 4.67 µg/m3
2023-06-09 07:00 69.37 µg/m3 0.53 µg/m3 22.1 µg/m3 31.8 µg/m3 18.02 µg/m3 0.47 mg/m3 22.16 °C 70 % 1,013.75 mbar 0.85 m/s 202.7 Deg 32.2 µg/m3 4.72 µg/m3
2023-06-09 06:00 65.59 µg/m3 0.46 µg/m3 15.26 µg/m3 29.61 µg/m3 19.91 µg/m3 0.46 mg/m3 20.87 °C 75.04 % 1,013.41 mbar 0.57 m/s 238.17 Deg 25.56 µg/m3 4.57 µg/m3
2023-06-09 05:00 50.83 µg/m3 0.22 µg/m3 18.52 µg/m3 28.76 µg/m3 19.99 µg/m3 0.32 mg/m3 20.41 °C 71.72 % 1,013.32 mbar 0.63 m/s 238.1 Deg 7.82 µg/m3 2.62 µg/m3
2023-06-09 04:00 23.06 µg/m3 0.12 µg/m3 45.33 µg/m3 23.07 µg/m3 17.3 µg/m3 0.19 mg/m3 20.35 °C 69.77 % 1,013.35 mbar 0.62 m/s 222.09 Deg 0.72 µg/m3 4.04 µg/m3
2023-06-09 03:00 29.89 µg/m3 0.24 µg/m3 33.61 µg/m3 22.94 µg/m3 17.24 µg/m3 0.1 mg/m3 20.56 °C 72.15 % 1,013.31 mbar 0.39 m/s 92.22 Deg 3.76 µg/m3 3.52 µg/m3
2023-06-09 02:00 15.36 µg/m3 0.09 µg/m3 49.92 µg/m3 20.79 µg/m3 15.9 µg/m3 0.08 mg/m3 20.91 °C 72.63 % 1,013.57 mbar 0.54 m/s 157.12 Deg 1.12 µg/m3 3.88 µg/m3
2023-06-09 01:00 40.74 µg/m3 0.22 µg/m3 34.29 µg/m3 23.53 µg/m3 16.23 µg/m3 0.16 mg/m3 21.22 °C 71.84 % 1,014.20 mbar 0.59 m/s 37.98 Deg 5.22 µg/m3 2.47 µg/m3
2023-06-09 00:00 18.1 µg/m3 0.05 µg/m3 69.82 µg/m3 17 µg/m3 11.6 µg/m3 0.06 mg/m3 21.68 °C 68.68 % 1,014.63 mbar 0.62 m/s 191.27 Deg 2.11 µg/m3 1.47 µg/m3
2023-06-08 23:00 16.86 µg/m3 0.05 µg/m3 75.04 µg/m3 14.01 µg/m3 9.44 µg/m3 0.05 mg/m3 21.92 °C 66.66 % 1,014.84 mbar 0.97 m/s 249.73 Deg 0.51 µg/m3 1.47 µg/m3

It is to be noted that the data is provisional and subject to quality assurance procedures. For validated data kindly refer your request to contact.air@era.org.mt